Villa Garden Hls, Puerto Rico
Current Conditions -  °F | °C
As of 6:56 PM on Monday 22 Dec 2014 (Local Time) from TJSJ Reporting Station
Few Clouds Few Clouds  
Wind Chill: 26°   Ceiling: Unl
Heat Index: 27°   Visibility: 10mi
Dew Point: 23°   Wind: 7mph
Humidity: 84%   Direction: 70°ENE
Pressure: 30"   Gusts: NA
Location:  18.3866°N, 66.1135°W
Report Text: TJSJ 222256Z 07006KT 10SM FEW028 26/23 A3000 RMK AO2 SLP158 T02560228
Loading
Personal Weather Stations






























Interactive Weather Map New forecast layout! Learn more

10-Day Weather Forecast

Advertisements
Track Severe Weather on mobile